Time;durP1;ratioP1;P1;durP2;ratioP2;P2;SDS_P1;SDS_P2;PMS_P1;PMS_P2;Temp;Humidity;BMP_temperature;BMP_pressure;BME280_temperature;BME280_humidity;BME280_pressure;Samples;Min_cycle;Max_cycle;Signal;HPM_P1;HPM_P2
2020/12/02 08:45:56;;;;;;;44.85;25.75;;;9.70;99.90;;;;;;4943166;24;20057;-72
2020/12/02 08:48:23;;;;;;;39.45;26.52;;;8.30;99.90;;;;;;4880115;29;20048;-73
2020/12/02 08:50:48;;;;;;;43.85;24.90;;;7.90;99.90;;;;;;4878690;29;20118;-72
2020/12/02 08:53:22;;;;;;;39.70;25.35;;;7.80;99.90;;;;;;4895197;29;20166;-71
2020/12/02 08:55:47;;;;;;;38.87;22.70;;;7.60;99.90;;;;;;4891209;29;20760;-71
2020/12/02 08:58:13;;;;;;;31.67;21.98;;;7.60;99.90;;;;;;4877462;29;20294;-68
2020/12/02 09:00:39;;;;;;;29.92;20.60;;;7.60;99.90;;;;;;4878715;29;20021;-70
2020/12/02 09:03:04;;;;;;;31.88;21.23;;;7.60;99.90;;;;;;4876011;29;20478;-72
2020/12/02 09:05:31;;;;;;;28.50;20.52;;;7.50;99.90;;;;;;4879688;29;20073;-72
2020/12/02 09:07:57;;;;;;;34.55;22.08;;;7.60;99.90;;;;;;4879239;29;20057;-72
2020/12/02 09:10:23;;;;;;;29.25;19.90;;;7.60;99.90;;;;;;4879473;29;20054;-72
2020/12/02 09:12:49;;;;;;;33.25;20.02;;;7.60;99.90;;;;;;4879475;29;20041;-72
2020/12/02 09:15:14;;;;;;;39.45;24.60;;;7.60;99.90;;;;;;4879000;29;20025;-71
2020/12/02 09:17:40;;;;;;;37.80;24.50;;;7.70;99.90;;;;;;4878862;29;20149;-72
2020/12/02 09:20:06;;;;;;;36.13;22.05;;;7.70;99.90;;;;;;4878818;29;20069;-73
2020/12/02 09:22:32;;;;;;;40.22;23.48;;;7.90;99.90;;;;;;4879215;29;20115;-72
2020/12/02 09:24:57;;;;;;;36.67;21.45;;;7.90;99.90;;;;;;4879023;29;20116;-71
2020/12/02 09:27:23;;;;;;;40.28;25.05;;;7.80;99.90;;;;;;4878862;29;20125;-72
2020/12/02 09:29:49;;;;;;;32.28;21.42;;;8.00;99.90;;;;;;4879422;29;20060;-72
2020/12/02 09:32:14;;;;;;;34.00;21.20;;;8.00;99.90;;;;;;4879079;29;20075;-72
2020/12/02 09:34:40;;;;;;;35.25;22.55;;;8.20;99.90;;;;;;4878829;29;20101;-72
2020/12/02 09:37:10;;;;;;;37.30;23.10;;;8.30;99.90;;;;;;4878896;29;20047;-71
2020/12/02 09:39:36;;;;;;;37.70;24.02;;;8.30;99.90;;;;;;4878329;29;20025;-71
2020/12/02 09:42:32;;;;;;;38.33;23.77;;;8.30;99.90;;;;;;4879030;29;20507;-72
2020/12/02 09:45:01;;;;;;;41.65;26.42;;;8.50;99.90;;;;;;4877115;29;20059;-73
2020/12/02 09:47:26;;;;;;;38.65;24.08;;;8.50;99.90;;;;;;4878741;29;20127;-72
2020/12/02 09:49:52;;;;;;;39.75;24.25;;;8.50;99.90;;;;;;4878814;29;20461;-70
2020/12/02 09:52:43;;;;;;;40.58;24.90;;;8.60;99.90;;;;;;4878492;29;20056;-71
2020/12/02 09:55:25;;;;;;;37.17;23.98;;;8.70;99.90;;;;;;4878620;29;20036;-73
2020/12/02 09:57:52;;;;;;;34.85;24.58;;;8.80;99.90;;;;;;4878640;29;20029;-73
2020/12/02 10:00:22;;;;;;;38.60;23.98;;;8.80;99.90;;;;;;4878339;29;20029;-72
2020/12/02 10:02:58;;;;;;;40.85;26.25;;;9.00;99.90;;;;;;4877777;29;20032;-72
2020/12/02 10:05:54;;;;;;;38.95;26.63;;;9.00;99.90;;;;;;4873888;29;20033;-71
2020/12/02 10:09:02;;;;;;;42.25;28.25;;;9.10;99.90;;;;;;4877302;29;20516;-72
2020/12/02 10:11:34;;;;;;;41.25;27.90;;;9.20;99.90;;;;;;4801347;29;20487;-71
2020/12/02 10:14:14;;;;;;;41.25;27.52;;;9.20;99.90;;;;;;4801956;29;20039;-72
2020/12/02 10:16:58;;;;;;;39.03;28.15;;;9.30;99.90;;;;;;4802727;29;20047;-72
2020/12/02 10:19:42;;;;;;;;;;;9.30;99.90;;;;;;4803054;29;20046;-72
2020/12/02 10:22:31;;;;;;;42.25;28.73;;;9.30;99.90;;;;;;4802852;29;20425;-71
2020/12/02 10:25:12;;;;;;;48.25;32.42;;;9.30;99.90;;;;;;4787021;29;20034;-71
2020/12/02 10:27:47;;;;;;;52.53;32.22;;;9.60;99.90;;;;;;4802551;29;20069;-71
2020/12/02 10:30:17;;;;;;;48.95;32.28;;;9.60;99.90;;;;;;4801637;29;20377;-72
2020/12/02 10:33:14;;;;;;;44.90;29.83;;;9.50;99.90;;;;;;4802390;29;20043;-74
2020/12/02 10:35:43;;;;;;;43.53;28.85;;;9.50;99.90;;;;;;4801695;29;20683;-73
2020/12/02 10:38:13;;;;;;;44.60;29.95;;;9.40;99.90;;;;;;4817455;29;20049;-73
2020/12/02 10:40:47;;;;;;;49.58;30.98;;;9.30;99.90;;;;;;4817516;29;20546;-74
2020/12/02 10:43:31;;;;;;;45.45;28.27;;;9.20;99.90;;;;;;4802475;29;20062;-73
2020/12/02 10:46:01;;;;;;;43.75;29.50;;;9.30;99.90;;;;;;4854920;29;20045;-73
2020/12/02 10:49:15;;;;;;;42.17;28.30;;;9.40;99.90;;;;;;4877067;29;20048;-74
2020/12/02 10:51:45;;;;;;;45.85;27.75;;;9.40;99.90;;;;;;4818561;29;20034;-73
2020/12/02 10:54:14;;;;;;;47.00;30.00;;;9.30;99.90;;;;;;4820969;29;20376;-73
2020/12/02 10:56:43;;;;;;;44.85;28.60;;;9.40;99.90;;;;;;4820249;29;20511;-73
2020/12/02 10:59:13;;;;;;;43.97;29.55;;;9.40;99.90;;;;;;4820298;29;20042;-73
2020/12/02 11:01:41;;;;;;;43.00;31.02;;;9.50;99.90;;;;;;4820523;29;20034;-73
2020/12/02 11:04:07;;;;;;;56.75;38.05;;;9.40;99.90;;;;;;4820109;29;20034;-72
2020/12/02 11:06:58;;;;;;;59.63;39.97;;;9.30;99.90;;;;;;4820345;29;20042;-74
2020/12/02 11:09:33;;;;;;;54.65;38.25;;;9.30;99.90;;;;;;4820118;29;20099;-73
2020/12/02 11:12:25;;;;;;;54.85;38.85;;;9.40;99.90;;;;;;4819963;29;20066;-74
2020/12/02 11:15:05;;;;;;;59.88;41.72;;;9.40;99.90;;;;;;4820271;29;20483;-73
2020/12/02 11:17:58;;;;;;;61.40;40.72;;;9.30;99.90;;;;;;4820105;29;20058;-74
2020/12/02 11:20:56;;;;;;;55.05;38.17;;;9.30;99.90;;;;;;4820239;29;20401;-72
2020/12/02 11:23:36;;;;;;;58.50;40.22;;;9.50;99.90;;;;;;4860042;29;20033;-73
2020/12/02 11:26:17;;;;;;;54.28;38.47;;;9.50;99.90;;;;;;4880776;29;20033;-73
2020/12/02 11:28:46;;;;;;;55.70;38.08;;;9.70;99.90;;;;;;4880961;29;20033;-73
2020/12/02 11:31:36;;;;;;;57.42;38.35;;;9.80;99.90;;;;;;4881244;29;20539;-72
2020/12/02 11:34:20;;;;;;;58.60;40.33;;;9.80;99.90;;;;;;4881055;29;20224;-72
2020/12/02 11:36:58;;;;;;;61.53;41.33;;;9.70;99.90;;;;;;4881064;29;20029;-73
2020/12/02 11:39:42;;;;;;;60.83;40.13;;;9.60;99.90;;;;;;4880660;29;20025;-73
2020/12/02 11:42:45;;;;;;;55.60;39.42;;;9.70;99.90;;;;;;4881419;29;20063;-73
2020/12/02 11:45:39;;;;;;;61.05;40.50;;;9.80;99.90;;;;;;4819426;29;20118;-73
2020/12/02 11:48:25;;;;;;;;;;;9.70;99.90;;;;;;4784720;30;20792;-74
2020/12/02 11:51:18;;;;;;;62.75;41.90;;;9.60;99.90;;;;;;4769405;30;19949;-72
2020/12/02 11:53:49;;;;;;;60.17;41.70;;;9.60;99.90;;;;;;4774706;30;20035;-73
2020/12/02 11:56:35;;;;;;;59.17;41.45;;;9.70;99.90;;;;;;4785959;30;20039;-73
2020/12/02 11:59:06;;;;;;;60.53;40.67;;;9.60;99.90;;;;;;4774222;29;20044;-72
2020/12/02 12:01:52;;;;;;;57.97;40.92;;;9.50;99.90;;;;;;4786937;30;20086;-72
2020/12/02 12:04:27;;;;;;;55.95;39.10;;;9.60;99.90;;;;;;4786872;30;20035;-72
2020/12/02 12:06:55;;;;;;;58.85;39.03;;;9.80;99.90;;;;;;4786976;30;20042;-74
2020/12/02 12:09:36;;;;;;;59.72;40.92;;;9.60;99.90;;;;;;4794776;29;20047;-73
2020/12/02 12:12:25;;;;;;;73.72;48.17;;;9.60;99.90;;;;;;4770000;29;20070;-74
2020/12/02 12:15:15;;;;;;;58.38;38.72;;;9.70;99.90;;;;;;4746732;30;20505;-71
2020/12/02 12:17:44;;;;;;;56.80;37.22;;;9.80;99.90;;;;;;4750341;30;20047;-71
2020/12/02 12:20:23;;;;;;;50.67;36.33;;;9.90;99.90;;;;;;4759189;30;20599;-70
2020/12/02 12:22:52;;;;;;;57.00;38.80;;;9.80;99.90;;;;;;4773111;30;20142;-71
2020/12/02 12:25:25;;;;;;;53.10;39.47;;;10.00;99.90;;;;;;4820332;29;20040;-71
2020/12/02 12:27:56;;;;;;;55.03;38.70;;;10.00;99.90;;;;;;4813468;29;20140;-72
2020/12/02 12:30:22;;;;;;;56.80;40.65;;;10.00;99.90;;;;;;4829328;29;20214;-72
2020/12/02 12:32:55;;;;;;;56.00;40.03;;;10.20;99.90;;;;;;4828871;29;20081;-72
2020/12/02 12:35:24;;;;;;;58.37;39.60;;;10.30;99.90;;;;;;4827416;29;20042;-71
2020/12/02 12:38:08;;;;;;;62.95;39.83;;;10.30;99.90;;;;;;4831225;29;20350;-72
2020/12/02 12:40:37;;;;;;;;;;;10.40;99.90;;;;;;4831108;29;20026;-72
2020/12/02 12:43:05;;;;;;;62.42;42.67;;;10.60;99.90;;;;;;4829450;29;20522;-71
2020/12/02 12:45:48;;;;;;;59.90;41.92;;;10.60;99.90;;;;;;4828444;29;20076;-71
2020/12/02 12:48:16;;;;;;;63.28;42.97;;;10.30;99.90;;;;;;4836387;29;20106;-72
2020/12/02 12:50:48;;;;;;;64.47;43.13;;;10.20;99.90;;;;;;4840225;29;20077;-72
2020/12/02 12:53:15;;;;;;;53.45;38.83;;;10.10;99.90;;;;;;4859735;29;20169;-72
2020/12/02 12:55:41;;;;;;;55.08;40.58;;;10.10;99.90;;;;;;4860103;29;20545;-70
2020/12/02 12:58:17;;;;;;;55.40;38.65;;;10.10;99.90;;;;;;4860150;29;20033;-72
2020/12/02 13:00:45;;;;;;;54.70;40.78;;;10.10;99.90;;;;;;4862191;29;20025;-71
2020/12/02 13:03:17;;;;;;;55.75;39.25;;;10.10;99.90;;;;;;4861958;29;20052;-71
2020/12/02 13:05:50;;;;;;;52.72;38.40;;;10.30;99.90;;;;;;4861921;29;20030;-72
2020/12/02 13:08:24;;;;;;;55.17;38.13;;;10.20;99.90;;;;;;4861870;29;20076;-71
2020/12/02 13:11:00;;;;;;;56.78;40.10;;;10.20;99.90;;;;;;4862273;29;20382;-72
2020/12/02 13:14:02;;;;;;;55.90;39.60;;;10.10;99.90;;;;;;4861798;29;20506;-70
2020/12/02 13:16:40;;;;;;;54.75;38.83;;;10.00;99.90;;;;;;4822565;29;20038;-72
2020/12/02 13:19:15;;;;;;;56.17;40.33;;;10.00;99.90;;;;;;4822816;29;20053;-72
2020/12/02 13:21:58;;;;;;;54.17;39.33;;;10.00;99.90;;;;;;4822723;29;20039;-72
2020/12/02 13:27:54;;;;;;;54.60;37.70;;;9.90;99.90;;;;;;4822812;29;20148;-71
2020/12/02 13:30:29;;;;;;;49.08;35.90;;;9.90;99.90;;;;;;4822349;29;20066;-72
2020/12/02 13:33:19;;;;;;;47.78;33.92;;;10.00;99.90;;;;;;4822710;29;20054;-73
2020/12/02 13:35:47;;;;;;;49.95;34.83;;;10.30;99.90;;;;;;4822495;29;20114;-71
2020/12/02 13:38:14;;;;;;;46.10;33.15;;;10.40;99.90;;;;;;4822644;29;20117;-72
2020/12/02 13:44:04;;;;;;;43.88;30.45;;;10.60;99.90;;;;;;4822678;29;20399;-71
2020/12/02 13:46:30;;;;;;;41.55;30.23;;;10.70;99.90;;;;;;4821980;29;20050;-71
2020/12/02 13:49:01;;;;;;;43.72;31.02;;;10.70;99.90;;;;;;4822385;29;20472;-72
2020/12/02 13:51:49;;;;;;;41.90;27.80;;;10.80;99.90;;;;;;4822571;29;20030;-72
2020/12/02 13:54:24;;;;;;;34.13;26.98;;;10.80;99.90;;;;;;4857981;29;20085;-71
2020/12/02 14:00:36;;;;;;;30.42;21.58;;;10.90;99.90;;;;;;4860959;29;20036;-72
2020/12/02 14:03:32;;;;;;;27.42;20.02;;;10.90;99.90;;;;;;4860703;29;20033;-72
2020/12/02 14:06:18;;;;;;;29.10;22.00;;;11.00;99.90;;;;;;4860866;29;20471;-71
2020/12/02 14:08:45;;;;;;;25.40;20.00;;;11.00;99.90;;;;;;4860813;29;20522;-71
2020/12/02 14:11:11;;;;;;;25.95;20.38;;;11.00;99.90;;;;;;4860585;29;20474;-72
2020/12/02 14:13:39;;;;;;;28.45;19.33;;;11.00;99.90;;;;;;4860545;29;20117;-73
2020/12/02 14:16:07;;;;;;;25.10;18.30;;;11.00;99.90;;;;;;4860482;29;20497;-72
2020/12/02 14:18:33;;;;;;;29.48;21.75;;;11.00;99.90;;;;;;4860859;29;20065;-72
2020/12/02 14:20:59;;;;;;;31.90;23.70;;;11.00;99.90;;;;;;4860877;29;20049;-73
2020/12/02 14:23:25;;;;;;;34.92;23.63;;;11.00;99.90;;;;;;4861014;29;20025;-73
2020/12/02 14:25:54;;;;;;;30.85;24.17;;;11.00;99.90;;;;;;4860610;29;20359;-73
2020/12/02 14:28:21;;;;;;;30.17;24.25;;;11.00;99.90;;;;;;4860737;29;20117;-73
2020/12/02 14:30:50;;;;;;;20.25;16.40;;;11.00;99.90;;;;;;4860584;29;20482;-72
2020/12/02 14:33:17;;;;;;;16.30;13.13;;;11.00;99.90;;;;;;4860948;29;20105;-72
2020/12/02 14:35:44;;;;;;;10.60;6.40;;;10.90;99.90;;;;;;4860438;29;20025;-72
2020/12/02 14:38:17;;;;;;;11.82;5.90;;;10.80;99.90;;;;;;4860499;29;20549;-73
2020/12/02 14:40:44;;;;;;;14.43;6.32;;;10.60;99.90;;;;;;4860596;29;20074;-73
2020/12/02 14:43:22;;;;;;;12.18;6.40;;;10.60;99.90;;;;;;4860617;29;20373;-72
2020/12/02 14:45:53;;;;;;;9.27;4.10;;;10.60;99.90;;;;;;4871758;29;20108;-72
2020/12/02 14:48:22;;;;;;;15.10;4.80;;;10.50;99.90;;;;;;4879075;29;20434;-72
2020/12/02 14:50:49;;;;;;;11.75;5.60;;;10.50;99.90;;;;;;4878830;29;20435;-72
2020/12/02 14:53:14;;;;;;;11.32;5.65;;;10.50;99.90;;;;;;4878888;29;20032;-73
2020/12/02 14:55:40;;;;;;;11.00;3.92;;;10.50;99.90;;;;;;4878935;29;20493;-72
2020/12/02 14:58:05;;;;;;;11.82;4.07;;;10.50;99.90;;;;;;4878954;29;20051;-72
2020/12/02 15:00:38;;;;;;;13.90;4.00;;;10.50;99.90;;;;;;4878808;29;20362;-73
2020/12/02 15:03:04;;;;;;;9.50;3.72;;;10.50;99.90;;;;;;4878765;29;20041;-72
2020/12/02 15:05:33;;;;;;;19.40;9.55;;;10.50;99.90;;;;;;4878588;29;20036;-72
2020/12/02 15:08:11;;;;;;;11.65;5.25;;;10.50;99.90;;;;;;4878652;29;20063;-73
2020/12/02 15:10:43;;;;;;;12.30;5.20;;;10.50;99.90;;;;;;4878969;29;20025;-73
2020/12/02 15:13:11;;;;;;;24.45;13.50;;;10.50;99.90;;;;;;4879054;29;20072;-71
2020/12/02 15:15:37;;;;;;;27.65;16.08;;;10.50;99.90;;;;;;4879611;29;20025;-71
2020/12/02 15:18:07;;;;;;;22.17;13.27;;;10.50;99.90;;;;;;4879092;29;20044;-73
2020/12/02 15:20:37;;;;;;;23.15;9.27;;;10.50;99.90;;;;;;4878877;29;20025;-73
2020/12/02 15:23:34;;;;;;;22.70;10.13;;;10.50;99.90;;;;;;4878959;29;20033;-73
2020/12/02 15:25:59;;;;;;;14.13;6.63;;;10.50;99.90;;;;;;4878814;29;20029;-73
2020/12/02 15:28:28;;;;;;;13.48;5.13;;;10.50;99.90;;;;;;4878856;29;20481;-72
2020/12/02 15:31:02;;;;;;;14.80;4.78;;;10.50;99.90;;;;;;4878856;29;20377;-73
2020/12/02 15:33:31;;;;;;;9.63;4.13;;;10.50;99.90;;;;;;4878874;29;20033;-73
2020/12/02 15:35:59;;;;;;;14.68;4.43;;;10.40;99.90;;;;;;4878591;29;20549;-73
2020/12/02 15:38:43;;;;;;;13.10;4.95;;;10.50;99.90;;;;;;4878533;29;20033;-72
2020/12/02 15:41:25;;;;;;;14.02;5.40;;;10.50;99.90;;;;;;4878734;29;20084;-73
2020/12/02 15:44:25;;;;;;;13.55;5.70;;;10.50;99.90;;;;;;4878236;29;20029;-74
2020/12/02 15:47:11;;;;;;;11.45;5.60;;;10.50;99.90;;;;;;4878672;29;20037;-75
2020/12/02 15:50:04;;;;;;;13.45;6.15;;;10.50;99.90;;;;;;4878368;29;20076;-80
2020/12/02 15:53:13;;;;;;;14.52;5.90;;;10.40;99.90;;;;;;4878552;29;20036;-77
2020/12/02 15:59:28;;;;;;;16.83;6.35;;;10.40;99.90;;;;;;4878551;29;20051;-75
2020/12/02 16:01:56;;;;;;;15.55;6.47;;;10.50;99.90;;;;;;4878623;29;20029;-73
2020/12/02 16:04:29;;;;;;;17.60;6.57;;;10.40;99.90;;;;;;4878387;29;20029;-74
2020/12/02 16:07:05;;;;;;;14.35;6.40;;;10.40;99.90;;;;;;4878279;29;20031;-74
2020/12/02 16:09:32;;;;;;;21.25;6.40;;;10.40;99.90;;;;;;4878886;29;20033;-73
2020/12/02 16:15:19;;;;;;;13.40;6.75;;;10.40;99.90;;;;;;4882011;29;20414;-72
2020/12/02 16:17:46;;;;;;;20.90;10.23;;;10.40;99.90;;;;;;4881884;29;20033;-72
2020/12/02 16:20:21;;;;;;;23.40;10.70;;;10.40;99.90;;;;;;4881625;29;20044;-71
2020/12/02 16:23:12;;;;;;;25.17;11.52;;;10.40;99.90;;;;;;4881261;29;20085;-72
2020/12/02 16:25:40;;;;;;;22.00;10.15;;;10.40;99.90;;;;;;4881340;29;20025;-72
2020/12/02 16:31:28;;;;;;;19.13;7.90;;;10.40;99.90;;;;;;4881552;29;20073;-72
2020/12/02 16:33:53;;;;;;;18.38;8.93;;;10.40;99.90;;;;;;4881440;29;20029;-72
2020/12/02 16:36:20;;;;;;;20.95;8.05;;;10.40;99.90;;;;;;4881108;29;20077;-71
2020/12/02 16:38:49;;;;;;;16.77;8.27;;;10.40;99.90;;;;;;4881373;29;20473;-71
2020/12/02 16:41:31;;;;;;;17.25;7.50;;;10.40;99.90;;;;;;4881070;29;20032;-71
2020/12/02 16:44:15;;;;;;;19.85;6.97;;;10.40;99.90;;;;;;4881205;29;20025;-73
2020/12/02 16:46:50;;;;;;;;;;;10.40;99.90;;;;;;4881214;29;20489;-70
2020/12/02 16:49:34;;;;;;;17.00;7.80;;;10.40;99.90;;;;;;4880835;29;20359;-73
2020/12/02 16:52:23;;;;;;;24.60;9.73;;;10.30;99.90;;;;;;4881191;29;20061;-72
2020/12/02 16:55:20;;;;;;;18.42;8.70;;;10.40;99.90;;;;;;4881206;29;20025;-72
2020/12/02 16:57:49;;;;;;;21.63;8.45;;;10.30;99.90;;;;;;4880853;29;20033;-73
2020/12/02 17:00:30;;;;;;;19.08;8.35;;;10.30;99.90;;;;;;4881011;29;20056;-73
2020/12/02 17:03:21;;;;;;;20.05;8.77;;;10.30;99.90;;;;;;4881095;29;20029;-73
2020/12/02 17:05:48;;;;;;;26.08;12.00;;;10.30;99.90;;;;;;4879984;29;20044;-73
2020/12/02 17:08:16;;;;;;;27.33;11.77;;;10.30;99.90;;;;;;4880602;29;20061;-73
2020/12/02 17:10:43;;;;;;;27.77;10.95;;;10.30;99.90;;;;;;4880649;29;20054;-73
2020/12/02 17:13:32;;;;;;;25.10;10.93;;;10.30;99.90;;;;;;4880639;29;20093;-73
2020/12/02 17:16:29;;;;;;;21.10;10.50;;;10.30;99.90;;;;;;4880570;29;20032;-73
2020/12/02 17:19:29;;;;;;;25.42;10.60;;;10.30;99.90;;;;;;4880581;29;20037;-74
2020/12/02 17:22:35;;;;;;;20.08;11.07;;;10.20;99.90;;;;;;4880121;29;20518;-73
2020/12/02 17:25:21;;;;;;;22.05;10.65;;;10.20;99.90;;;;;;4804804;29;20034;-75
2020/12/02 17:31:29;;;;;;;31.08;18.13;;;10.20;99.90;;;;;;4804757;29;20042;-74
2020/12/02 17:34:03;;;;;;;30.40;15.23;;;10.10;99.90;;;;;;4803868;29;20484;-73
2020/12/02 17:36:37;;;;;;;31.17;13.90;;;10.10;99.90;;;;;;4803740;29;20104;-73
2020/12/02 17:39:10;;;;;;;25.77;14.35;;;10.10;99.90;;;;;;4803763;29;20051;-74
2020/12/02 17:48:52;;;;;;;30.05;13.88;;;10.10;99.90;;;;;;4803100;29;20115;-73
2020/12/02 17:51:44;;;;;;;27.27;13.52;;;10.00;99.90;;;;;;4803718;29;20039;-72
2020/12/02 17:54:16;;;;;;;26.42;13.68;;;10.00;99.90;;;;;;4803497;29;20047;-73
2020/12/02 17:56:43;;;;;;;42.55;21.33;;;10.00;99.90;;;;;;4803502;29;20035;-72
2020/12/02 18:02:57;;;;;;;41.50;18.20;;;9.90;99.90;;;;;;4839386;29;20031;-73
2020/12/02 18:05:54;;;;;;;39.55;16.05;;;10.00;99.90;;;;;;4842036;29;20030;-73
2020/12/02 18:08:32;;;;;;;37.35;18.30;;;9.90;99.90;;;;;;4842462;29;20057;-72
2020/12/02 18:11:27;;;;;;;44.50;16.73;;;9.90;99.90;;;;;;4841954;29;20091;-73
2020/12/02 18:14:17;;;;;;;34.28;12.77;;;9.80;99.90;;;;;;4841981;29;20108;-72
2020/12/02 18:16:56;;;;;;;33.42;15.07;;;9.80;99.90;;;;;;4842021;29;20029;-72
2020/12/02 18:19:38;;;;;;;27.17;11.70;;;9.70;99.90;;;;;;4841860;29;20059;-72
2020/12/02 18:22:25;;;;;;;30.88;12.73;;;9.60;99.90;;;;;;4840880;29;20382;-74
2020/12/02 18:25:08;;;;;;;50.78;24.77;;;9.70;99.90;;;;;;4841856;29;20415;-74
2020/12/02 18:31:15;;;;;;;40.65;23.42;;;9.70;99.90;;;;;;4841811;29;20551;-73
2020/12/02 18:34:13;;;;;;;32.33;17.58;;;9.60;99.90;;;;;;4840256;29;20045;-72
2020/12/02 18:36:47;;;;;;;32.80;16.80;;;9.60;99.90;;;;;;4841272;29;20030;-72
2020/12/02 18:39:16;;;;;;;29.98;13.32;;;9.70;99.90;;;;;;4841213;29;20356;-72
2020/12/02 18:42:10;;;;;;;30.45;12.63;;;9.70;99.90;;;;;;4841972;29;20493;-72
2020/12/02 18:47:59;;;;;;;27.60;13.50;;;9.60;99.90;;;;;;4869419;29;20524;-74
2020/12/02 18:50:25;;;;;;;38.50;12.73;;;9.60;99.90;;;;;;4879070;29;20393;-75
2020/12/02 18:52:51;;;;;;;28.52;12.93;;;9.60;99.90;;;;;;4879172;29;20123;-74
2020/12/02 18:55:17;;;;;;;25.63;10.70;;;9.70;99.90;;;;;;4878880;29;20037;-75
2020/12/02 18:58:05;;;;;;;27.13;10.77;;;9.60;99.90;;;;;;4878574;29;20053;-73
2020/12/02 19:00:31;;;;;;;27.02;10.63;;;9.60;99.90;;;;;;4878759;29;20021;-73
2020/12/02 19:03:00;;;;;;;24.85;10.40;;;9.60;99.90;;;;;;4878649;29;20033;-72
2020/12/02 19:05:31;;;;;;;24.63;9.98;;;9.60;99.90;;;;;;4878968;29;20366;-72
2020/12/02 19:08:24;;;;;;;24.45;10.07;;;9.70;99.90;;;;;;4878532;29;20036;-74
2020/12/02 19:10:55;;;;;;;26.58;9.65;;;9.70;99.90;;;;;;4878638;29;20029;-74
2020/12/02 19:13:36;;;;;;;31.95;12.82;;;9.60;99.90;;;;;;4878868;29;20039;-73
2020/12/02 19:16:17;;;;;;;24.15;10.82;;;9.60;99.90;;;;;;4878539;29;20382;-73
2020/12/02 19:18:49;;;;;;;31.48;13.02;;;9.60;99.90;;;;;;4878528;29;20025;-72
2020/12/02 19:21:34;;;;;;;25.42;12.13;;;9.70;99.90;;;;;;4878551;29;20025;-74
2020/12/02 19:24:21;;;;;;;27.85;10.65;;;9.60;99.90;;;;;;4878540;29;20465;-73
2020/12/02 19:27:18;;;;;;;22.63;10.98;;;9.60;99.90;;;;;;4878464;29;20029;-72
2020/12/02 19:30:08;;;;;;;25.33;10.48;;;9.50;99.90;;;;;;4878305;29;20033;-73
2020/12/02 19:32:49;;;;;;;28.25;11.50;;;9.60;99.90;;;;;;4878668;29;20028;-72
2020/12/02 19:35:35;;;;;;;26.60;11.82;;;9.50;99.90;;;;;;4878689;29;20181;-73
2020/12/02 19:38:34;;;;;;;26.50;12.45;;;9.60;99.90;;;;;;4878369;29;20048;-74
2020/12/02 19:41:28;;;;;;;27.98;13.35;;;9.50;99.90;;;;;;4878411;29;20112;-71
2020/12/02 19:47:27;;;;;;;24.58;12.52;;;9.50;99.90;;;;;;4881931;29;20568;-72
2020/12/02 19:49:53;;;;;;;24.00;13.15;;;9.50;99.90;;;;;;4881882;29;20181;-72
2020/12/02 19:52:21;;;;;;;26.13;13.43;;;9.50;99.90;;;;;;4882476;29;20112;-72
2020/12/02 19:54:47;;;;;;;29.90;15.48;;;9.50;99.90;;;;;;4882063;29;20085;-71
2020/12/02 19:57:34;;;;;;;33.97;17.33;;;9.40;99.90;;;;;;4882193;29;20488;-71
2020/12/02 20:03:37;;;;;;;37.30;17.65;;;9.40;99.90;;;;;;4882187;29;20044;-72
2020/12/02 20:06:27;;;;;;;31.70;17.58;;;9.40;99.90;;;;;;4881769;29;20037;-69
2020/12/02 20:09:27;;;;;;;32.22;18.20;;;9.40;99.90;;;;;;4881672;29;20430;-69
2020/12/02 20:12:20;;;;;;;33.00;15.85;;;9.40;99.90;;;;;;4881636;29;20046;-67
2020/12/02 20:15:03;;;;;;;31.77;15.02;;;9.40;99.90;;;;;;4881543;29;20033;-68
2020/12/02 20:17:40;;;;;;;29.27;13.95;;;9.40;99.90;;;;;;4881473;29;20032;-68
2020/12/02 20:20:34;;;;;;;30.55;14.65;;;9.40;99.90;;;;;;4881673;29;20029;-66
2020/12/02 20:23:20;;;;;;;30.40;14.10;;;9.40;99.90;;;;;;4881472;29;20025;-67
2020/12/02 20:25:52;;;;;;;33.55;15.95;;;9.40;99.90;;;;;;4881485;29;20108;-68
2020/12/02 20:31:27;;;;;;;36.92;16.13;;;9.40;99.90;;;;;;4881711;29;20032;-69
2020/12/02 20:33:53;;;;;;;34.35;16.05;;;9.40;99.90;;;;;;4881268;29;20116;-69
2020/12/02 20:36:19;;;;;;;31.73;15.70;;;9.40;99.90;;;;;;4881051;29;20064;-69
2020/12/02 20:38:51;;;;;;;26.65;14.93;;;9.40;99.90;;;;;;4881467;29;20033;-69
2020/12/02 20:41:19;;;;;;;26.50;13.77;;;9.40;99.90;;;;;;4881682;29;20025;-69
2020/12/02 20:47:17;;;;;;;28.85;12.93;;;9.40;99.90;;;;;;4881101;29;20116;-66
2020/12/02 20:50:03;;;;;;;26.10;12.65;;;9.40;99.90;;;;;;4881461;29;20025;-66
2020/12/02 20:52:46;;;;;;;26.85;13.98;;;9.40;99.90;;;;;;4881315;29;20032;-67
2020/12/02 20:55:15;;;;;;;31.65;14.27;;;9.40;99.90;;;;;;4880568;29;20397;-67
2020/12/02 20:57:50;;;;;;;31.30;14.73;;;9.40;99.90;;;;;;4880763;29;20044;-68
2020/12/02 21:03:38;;;;;;;31.30;14.50;;;9.40;99.90;;;;;;4880696;29;20050;-68
2020/12/02 21:06:05;;;;;;;24.65;13.57;;;9.30;99.90;;;;;;4880697;29;20498;-69
2020/12/02 21:08:35;;;;;;;29.58;13.40;;;9.40;99.90;;;;;;4880948;29;20068;-67
2020/12/02 21:11:01;;;;;;;27.50;12.40;;;9.40;99.90;;;;;;4880915;29;20461;-69
2020/12/02 21:13:27;;;;;;;27.25;12.48;;;9.40;99.90;;;;;;4880929;29;20111;-69
2020/12/02 21:19:38;;;;;;;27.38;12.48;;;9.40;99.90;;;;;;4880246;29;20036;-68
2020/12/02 21:22:09;;;;;;;29.65;12.90;;;9.50;99.90;;;;;;4880666;29;20052;-68
2020/12/02 21:25:09;;;;;;;29.27;12.35;;;9.50;99.90;;;;;;4880779;29;20048;-68
2020/12/02 21:28:01;;;;;;;28.60;12.32;;;9.50;99.90;;;;;;4880319;29;20037;-67
2020/12/02 21:30:33;;;;;;;30.35;11.93;;;9.40;99.90;;;;;;4880461;29;20090;-68
2020/12/02 21:33:17;;;;;;;28.23;10.80;;;9.50;99.90;;;;;;4880572;29;20458;-68
2020/12/02 21:35:54;;;;;;;22.08;9.50;;;9.40;99.90;;;;;;4880414;29;20053;-68
2020/12/02 21:38:31;;;;;;;21.98;8.77;;;9.40;99.90;;;;;;4879817;29;20044;-68
2020/12/02 21:41:03;;;;;;;22.90;9.70;;;9.40;99.90;;;;;;4880057;29;20478;-70
2020/12/02 21:47:15;;;;;;;24.73;9.05;;;9.40;99.90;;;;;;4879520;29;20052;-69
2020/12/02 21:49:41;;;;;;;29.02;8.98;;;9.40;99.90;;;;;;4880159;29;20040;-67
2020/12/02 21:52:13;;;;;;;25.48;8.40;;;9.40;99.90;;;;;;4880279;29;20415;-69
2020/12/02 21:54:58;;;;;;;19.52;8.05;;;9.30;99.90;;;;;;4879984;29;20416;-69
2020/12/02 21:57:27;;;;;;;22.50;8.70;;;9.30;99.90;;;;;;4880083;29;20021;-68
2020/12/02 22:04:06;;;;;;;20.60;7.95;;;9.30;99.90;;;;;;4880037;29;20096;-68
2020/12/02 22:06:31;;;;;;;23.42;7.28;;;9.40;99.90;;;;;;4804247;29;20058;-69
2020/12/02 22:09:02;;;;;;;22.27;7.43;;;9.40;99.90;;;;;;4803537;29;20078;-70
2020/12/02 22:11:40;;;;;;;20.63;7.80;;;9.40;99.90;;;;;;4804407;29;20042;-70
2020/12/02 22:20:56;;;;;;;18.45;6.72;;;9.40;99.90;;;;;;4804538;29;20079;-69
2020/12/02 22:24:08;;;;;;;22.73;6.80;;;9.30;99.90;;;;;;4804237;29;20053;-69
2020/12/02 22:26:34;;;;;;;20.23;6.50;;;9.30;99.90;;;;;;4775874;29;20091;-69
2020/12/02 22:29:00;;;;;;;21.65;7.20;;;9.30;99.90;;;;;;4804153;29;20053;-68
2020/12/02 22:31:41;;;;;;;22.17;7.05;;;9.30;99.90;;;;;;4804077;29;20038;-69
2020/12/02 22:34:16;;;;;;;28.55;7.50;;;9.30;99.90;;;;;;4804006;29;20027;-68
2020/12/02 22:37:08;;;;;;;17.73;7.03;;;9.30;99.90;;;;;;4804005;29;20065;-69
2020/12/02 22:39:51;;;;;;;20.15;7.30;;;9.30;99.90;;;;;;4803353;29;20043;-70
2020/12/02 22:42:50;;;;;;;17.33;7.43;;;9.30;99.90;;;;;;4846686;29;20120;-71
2020/12/02 22:48:38;;;;;;;14.93;6.78;;;9.30;99.90;;;;;;4873879;29;20075;-70
2020/12/02 22:51:07;;;;;;;25.83;7.20;;;9.30;99.90;;;;;;4879373;29;20032;-68
2020/12/02 22:53:36;;;;;;;21.90;7.38;;;9.30;99.90;;;;;;4878827;29;20469;-69
2020/12/02 22:56:04;;;;;;;21.40;7.63;;;9.30;99.90;;;;;;4879250;29;20044;-69
2020/12/02 22:58:32;;;;;;;18.33;6.85;;;9.30;99.90;;;;;;4879013;29;20039;-70
2020/12/02 23:04:21;;;;;;;19.90;6.88;;;9.20;99.90;;;;;;4879043;29;20036;-71
2020/12/02 23:06:55;;;;;;;24.48;7.47;;;9.30;99.90;;;;;;4879072;29;20029;-73
2020/12/02 23:09:32;;;;;;;21.73;7.38;;;9.30;99.90;;;;;;4879062;29;20073;-74
2020/12/02 23:12:18;;;;;;;20.77;7.53;;;9.30;99.90;;;;;;4879102;29;20093;-75
2020/12/02 23:15:09;;;;;;;19.10;6.93;;;9.30;99.90;;;;;;4878877;29;20032;-73
2020/12/02 23:17:57;;;;;;;25.27;7.22;;;9.30;99.90;;;;;;4878768;29;20512;-72
2020/12/02 23:20:30;;;;;;;18.15;6.50;;;9.20;99.90;;;;;;4878828;29;20029;-73
2020/12/02 23:22:56;;;;;;;21.33;7.05;;;9.20;99.90;;;;;;4879185;29;20033;-74
2020/12/02 23:25:24;;;;;;;21.15;7.38;;;9.20;99.90;;;;;;4879624;29;20040;-74
2020/12/02 23:27:58;;;;;;;17.60;6.68;;;9.20;99.90;;;;;;4879455;29;20100;-73
2020/12/02 23:30:33;;;;;;;21.70;7.78;;;9.20;99.90;;;;;;4879564;29;20378;-72
2020/12/02 23:33:18;;;;;;;20.30;7.47;;;9.20;99.90;;;;;;4879086;29;20115;-73